sensor_id;sensor_type;location;lat;lon;timestamp;temperature;humidity
32476;DHT22;18929;48.008;10.882;2023-04-01T00:01:50;8.50;99.90
32476;DHT22;18929;48.008;10.882;2023-04-01T00:04:16;8.40;99.90
32476;DHT22;18929;48.008;10.882;2023-04-01T00:06:43;8.40;99.90
32476;DHT22;18929;48.008;10.882;2023-04-01T00:09:10;8.30;99.90
32476;DHT22;18929;48.008;10.882;2023-04-01T00:11:38;8.40;99.90
32476;DHT22;18929;48.008;10.882;2023-04-01T00:14:06;8.50;99.90
32476;DHT22;18929;48.008;10.882;2023-04-01T00:16:33;8.40;99.90
32476;DHT22;18929;48.008;10.882;2023-04-01T00:18:59;8.50;99.90
32476;DHT22;18929;48.008;10.882;2023-04-01T00:21:26;8.30;99.90
32476;DHT22;18929;48.008;10.882;2023-04-01T00:23:53;8.40;99.90
32476;DHT22;18929;48.008;10.882;2023-04-01T00:26:20;8.40;99.90
32476;DHT22;18929;48.008;10.882;2023-04-01T00:28:48;8.20;99.90
32476;DHT22;18929;48.008;10.882;2023-04-01T00:31:16;8.40;99.90
32476;DHT22;18929;48.008;10.882;2023-04-01T00:33:43;8.20;99.90
32476;DHT22;18929;48.008;10.882;2023-04-01T00:36:10;8.20;99.90
32476;DHT22;18929;48.008;10.882;2023-04-01T00:38:37;8.00;99.90
32476;DHT22;18929;48.008;10.882;2023-04-01T00:41:04;7.90;99.90
32476;DHT22;18929;48.008;10.882;2023-04-01T00:43:31;7.90;99.90
32476;DHT22;18929;48.008;10.882;2023-04-01T00:46:00;7.90;99.90
32476;DHT22;18929;48.008;10.882;2023-04-01T00:48:27;7.90;99.90
32476;DHT22;18929;48.008;10.882;2023-04-01T00:50:56;7.90;99.90
32476;DHT22;18929;48.008;10.882;2023-04-01T00:53:25;8.00;99.90
32476;DHT22;18929;48.008;10.882;2023-04-01T00:55:54;8.10;99.90
32476;DHT22;18929;48.008;10.882;2023-04-01T00:58:24;8.00;99.90
32476;DHT22;18929;48.008;10.882;2023-04-01T01:00:53;7.90;99.90
32476;DHT22;18929;48.008;10.882;2023-04-01T01:03:22;7.80;99.90
32476;DHT22;18929;48.008;10.882;2023-04-01T01:06:02;8.00;99.90
32476;DHT22;18929;48.008;10.882;2023-04-01T01:08:34;7.90;99.90
32476;DHT22;18929;48.008;10.882;2023-04-01T01:11:06;8.00;99.90
32476;DHT22;18929;48.008;10.882;2023-04-01T01:13:36;8.00;99.90
32476;DHT22;18929;48.008;10.882;2023-04-01T01:16:10;7.80;99.90
32476;DHT22;18929;48.008;10.882;2023-04-01T01:18:41;7.80;99.90
32476;DHT22;18929;48.008;10.882;2023-04-01T01:21:16;7.80;99.90
32476;DHT22;18929;48.008;10.882;2023-04-01T01:26:49;7.80;99.90
32476;DHT22;18929;48.008;10.882;2023-04-01T01:29:27;7.90;99.90
32476;DHT22;18929;48.008;10.882;2023-04-01T01:31:56;8.00;99.90
32476;DHT22;18929;48.008;10.882;2023-04-01T01:34:27;8.00;99.90
32476;DHT22;18929;48.008;10.882;2023-04-01T01:37:00;8.00;99.90
32476;DHT22;18929;48.008;10.882;2023-04-01T01:39:29;8.00;99.90
32476;DHT22;18929;48.008;10.882;2023-04-01T01:41:57;8.10;99.90
32476;DHT22;18929;48.008;10.882;2023-04-01T01:44:26;7.90;99.90
32476;DHT22;18929;48.008;10.882;2023-04-01T01:46:54;7.80;99.90
32476;DHT22;18929;48.008;10.882;2023-04-01T01:49:22;7.90;99.90
32476;DHT22;18929;48.008;10.882;2023-04-01T01:51:50;7.90;99.90
32476;DHT22;18929;48.008;10.882;2023-04-01T01:54:18;7.90;99.90
32476;DHT22;18929;48.008;10.882;2023-04-01T01:56:46;7.90;99.90
32476;DHT22;18929;48.008;10.882;2023-04-01T01:59:14;7.80;99.90
32476;DHT22;18929;48.008;10.882;2023-04-01T02:01:42;7.70;99.90
32476;DHT22;18929;48.008;10.882;2023-04-01T02:04:10;7.80;99.90
32476;DHT22;18929;48.008;10.882;2023-04-01T02:06:38;7.60;99.90
32476;DHT22;18929;48.008;10.882;2023-04-01T02:09:06;7.50;99.90
32476;DHT22;18929;48.008;10.882;2023-04-01T02:11:38;7.70;99.90
32476;DHT22;18929;48.008;10.882;2023-04-01T02:14:07;7.90;99.90
32476;DHT22;18929;48.008;10.882;2023-04-01T02:16:37;7.70;99.90
32476;DHT22;18929;48.008;10.882;2023-04-01T02:19:06;7.60;99.90
32476;DHT22;18929;48.008;10.882;2023-04-01T02:21:33;7.70;99.90
32476;DHT22;18929;48.008;10.882;2023-04-01T02:24:02;7.50;99.90
32476;DHT22;18929;48.008;10.882;2023-04-01T02:26:30;7.70;99.90
32476;DHT22;18929;48.008;10.882;2023-04-01T02:28:58;8.00;99.90
32476;DHT22;18929;48.008;10.882;2023-04-01T02:31:26;7.80;99.90
32476;DHT22;18929;48.008;10.882;2023-04-01T02:33:54;7.70;99.90
32476;DHT22;18929;48.008;10.882;2023-04-01T02:36:21;7.80;99.90
32476;DHT22;18929;48.008;10.882;2023-04-01T02:38:47;7.80;99.90
32476;DHT22;18929;48.008;10.882;2023-04-01T02:41:16;7.80;99.90
32476;DHT22;18929;48.008;10.882;2023-04-01T02:43:43;7.80;99.90
32476;DHT22;18929;48.008;10.882;2023-04-01T02:46:11;7.70;99.90
32476;DHT22;18929;48.008;10.882;2023-04-01T02:48:38;7.50;99.90
32476;DHT22;18929;48.008;10.882;2023-04-01T02:51:05;7.50;99.90
32476;DHT22;18929;48.008;10.882;2023-04-01T02:53:32;7.60;99.90
32476;DHT22;18929;48.008;10.882;2023-04-01T02:55:58;7.50;99.90
32476;DHT22;18929;48.008;10.882;2023-04-01T02:58:25;7.60;99.90
32476;DHT22;18929;48.008;10.882;2023-04-01T03:00:52;7.60;99.90
32476;DHT22;18929;48.008;10.882;2023-04-01T03:03:20;7.70;99.90
32476;DHT22;18929;48.008;10.882;2023-04-01T03:05:47;7.70;99.90
32476;DHT22;18929;48.008;10.882;2023-04-01T03:08:14;7.70;99.90
32476;DHT22;18929;48.008;10.882;2023-04-01T03:10:42;7.50;99.90
32476;DHT22;18929;48.008;10.882;2023-04-01T03:13:08;7.60;99.90
32476;DHT22;18929;48.008;10.882;2023-04-01T03:15:36;7.70;99.90
32476;DHT22;18929;48.008;10.882;2023-04-01T03:18:03;7.60;99.90
32476;DHT22;18929;48.008;10.882;2023-04-01T03:20:31;7.80;99.90
32476;DHT22;18929;48.008;10.882;2023-04-01T03:22:58;7.80;99.90
32476;DHT22;18929;48.008;10.882;2023-04-01T03:25:25;7.70;99.90
32476;DHT22;18929;48.008;10.882;2023-04-01T03:27:52;7.50;99.90
32476;DHT22;18929;48.008;10.882;2023-04-01T03:30:19;7.60;99.90
32476;DHT22;18929;48.008;10.882;2023-04-01T03:32:45;7.60;99.90
32476;DHT22;18929;48.008;10.882;2023-04-01T03:35:12;7.50;99.90
32476;DHT22;18929;48.008;10.882;2023-04-01T03:37:40;7.60;99.90
32476;DHT22;18929;48.008;10.882;2023-04-01T03:40:07;7.60;99.90
32476;DHT22;18929;48.008;10.882;2023-04-01T03:42:34;7.60;99.90
32476;DHT22;18929;48.008;10.882;2023-04-01T03:45:01;7.50;99.90
32476;DHT22;18929;48.008;10.882;2023-04-01T03:47:28;7.70;99.90
32476;DHT22;18929;48.008;10.882;2023-04-01T03:49:55;7.70;99.90
32476;DHT22;18929;48.008;10.882;2023-04-01T03:52:22;7.60;99.90
32476;DHT22;18929;48.008;10.882;2023-04-01T03:54:50;7.60;99.90
32476;DHT22;18929;48.008;10.882;2023-04-01T03:57:17;7.60;99.90
32476;DHT22;18929;48.008;10.882;2023-04-01T03:59:44;7.60;99.90
32476;DHT22;18929;48.008;10.882;2023-04-01T04:02:10;7.60;99.90
32476;DHT22;18929;48.008;10.882;2023-04-01T04:04:37;7.50;99.90
32476;DHT22;18929;48.008;10.882;2023-04-01T04:07:04;7.60;99.90
32476;DHT22;18929;48.008;10.882;2023-04-01T04:09:31;7.50;99.90
32476;DHT22;18929;48.008;10.882;2023-04-01T04:12:00;7.40;99.90
32476;DHT22;18929;48.008;10.882;2023-04-01T04:14:27;7.30;99.90
32476;DHT22;18929;48.008;10.882;2023-04-01T04:16:54;7.40;99.90
32476;DHT22;18929;48.008;10.882;2023-04-01T04:19:20;7.50;99.90
32476;DHT22;18929;48.008;10.882;2023-04-01T04:21:47;7.60;99.90
32476;DHT22;18929;48.008;10.882;2023-04-01T04:24:14;7.50;99.90
32476;DHT22;18929;48.008;10.882;2023-04-01T04:26:40;7.40;99.90
32476;DHT22;18929;48.008;10.882;2023-04-01T04:29:09;7.50;99.90
32476;DHT22;18929;48.008;10.882;2023-04-01T04:31:35;7.60;99.90
32476;DHT22;18929;48.008;10.882;2023-04-01T04:34:02;7.60;99.90
32476;DHT22;18929;48.008;10.882;2023-04-01T04:36:29;7.60;99.90
32476;DHT22;18929;48.008;10.882;2023-04-01T04:38:56;7.50;99.90
32476;DHT22;18929;48.008;10.882;2023-04-01T04:41:23;7.50;99.90
32476;DHT22;18929;48.008;10.882;2023-04-01T04:43:51;7.50;99.90
32476;DHT22;18929;48.008;10.882;2023-04-01T04:46:20;7.40;99.90
32476;DHT22;18929;48.008;10.882;2023-04-01T04:48:47;7.40;99.90
32476;DHT22;18929;48.008;10.882;2023-04-01T04:51:14;7.40;99.90
32476;DHT22;18929;48.008;10.882;2023-04-01T04:53:42;7.40;99.90
32476;DHT22;18929;48.008;10.882;2023-04-01T04:56:09;7.40;99.90
32476;DHT22;18929;48.008;10.882;2023-04-01T04:58:36;7.40;99.90
32476;DHT22;18929;48.008;10.882;2023-04-01T05:01:06;7.40;99.90
32476;DHT22;18929;48.008;10.882;2023-04-01T05:03:34;7.30;99.90
32476;DHT22;18929;48.008;10.882;2023-04-01T05:06:01;7.40;99.90
32476;DHT22;18929;48.008;10.882;2023-04-01T05:08:28;7.40;99.90
32476;DHT22;18929;48.008;10.882;2023-04-01T05:10:55;7.60;99.90
32476;DHT22;18929;48.008;10.882;2023-04-01T05:13:22;7.50;99.90
32476;DHT22;18929;48.008;10.882;2023-04-01T05:18:42;7.60;99.90
32476;DHT22;18929;48.008;10.882;2023-04-01T05:21:10;7.70;99.90
32476;DHT22;18929;48.008;10.882;2023-04-01T05:23:37;7.50;99.90
32476;DHT22;18929;48.008;10.882;2023-04-01T05:26:04;7.40;99.90
32476;DHT22;18929;48.008;10.882;2023-04-01T05:28:31;7.40;99.90
32476;DHT22;18929;48.008;10.882;2023-04-01T05:30:58;7.40;99.90
32476;DHT22;18929;48.008;10.882;2023-04-01T05:33:25;7.60;99.90
32476;DHT22;18929;48.008;10.882;2023-04-01T05:35:53;7.60;99.90
32476;DHT22;18929;48.008;10.882;2023-04-01T05:38:20;7.40;99.90
32476;DHT22;18929;48.008;10.882;2023-04-01T05:40:46;7.60;99.90
32476;DHT22;18929;48.008;10.882;2023-04-01T05:43:13;7.60;99.90
32476;DHT22;18929;48.008;10.882;2023-04-01T05:45:40;7.70;99.90
32476;DHT22;18929;48.008;10.882;2023-04-01T05:48:07;7.60;99.90
32476;DHT22;18929;48.008;10.882;2023-04-01T05:50:34;7.60;99.90
32476;DHT22;18929;48.008;10.882;2023-04-01T05:53:02;7.50;99.90
32476;DHT22;18929;48.008;10.882;2023-04-01T05:55:29;7.40;99.90
32476;DHT22;18929;48.008;10.882;2023-04-01T05:57:56;7.60;99.90
32476;DHT22;18929;48.008;10.882;2023-04-01T06:00:22;7.50;99.90
32476;DHT22;18929;48.008;10.882;2023-04-01T06:02:49;7.60;99.90
32476;DHT22;18929;48.008;10.882;2023-04-01T06:05:18;7.70;99.90
32476;DHT22;18929;48.008;10.882;2023-04-01T06:07:46;7.90;99.90
32476;DHT22;18929;48.008;10.882;2023-04-01T06:10:15;7.50;99.90
32476;DHT22;18929;48.008;10.882;2023-04-01T06:12:49;7.40;99.90
32476;DHT22;18929;48.008;10.882;2023-04-01T06:15:20;7.50;99.90
32476;DHT22;18929;48.008;10.882;2023-04-01T06:20:40;7.60;99.90
32476;DHT22;18929;48.008;10.882;2023-04-01T06:23:13;7.70;99.90
32476;DHT22;18929;48.008;10.882;2023-04-01T06:25:50;7.70;99.90
32476;DHT22;18929;48.008;10.882;2023-04-01T06:28:30;7.60;99.90
32476;DHT22;18929;48.008;10.882;2023-04-01T06:31:03;7.60;99.90
32476;DHT22;18929;48.008;10.882;2023-04-01T06:33:35;7.60;99.90
32476;DHT22;18929;48.008;10.882;2023-04-01T06:36:14;7.50;99.90
32476;DHT22;18929;48.008;10.882;2023-04-01T06:38:46;7.50;99.90
32476;DHT22;18929;48.008;10.882;2023-04-01T06:44:04;7.60;99.90
32476;DHT22;18929;48.008;10.882;2023-04-01T06:49:24;7.50;99.90
32476;DHT22;18929;48.008;10.882;2023-04-01T06:51:55;7.40;99.90
32476;DHT22;18929;48.008;10.882;2023-04-01T06:54:25;7.60;99.90
32476;DHT22;18929;48.008;10.882;2023-04-01T06:56:57;7.70;99.90
32476;DHT22;18929;48.008;10.882;2023-04-01T06:59:26;7.60;99.90
32476;DHT22;18929;48.008;10.882;2023-04-01T07:01:55;7.80;99.90
32476;DHT22;18929;48.008;10.882;2023-04-01T07:04:23;7.70;99.90
32476;DHT22;18929;48.008;10.882;2023-04-01T07:06:52;7.90;99.90
32476;DHT22;18929;48.008;10.882;2023-04-01T07:09:20;7.70;99.90
32476;DHT22;18929;48.008;10.882;2023-04-01T07:11:48;7.60;99.90
32476;DHT22;18929;48.008;10.882;2023-04-01T07:14:17;7.60;99.90
32476;DHT22;18929;48.008;10.882;2023-04-01T07:16:48;7.40;99.90
32476;DHT22;18929;48.008;10.882;2023-04-01T07:19:18;7.70;99.90
32476;DHT22;18929;48.008;10.882;2023-04-01T07:21:47;7.80;99.90
32476;DHT22;18929;48.008;10.882;2023-04-01T07:24:17;7.60;99.90
32476;DHT22;18929;48.008;10.882;2023-04-01T07:26:54;7.90;99.90
32476;DHT22;18929;48.008;10.882;2023-04-01T07:29:21;7.90;99.90
32476;DHT22;18929;48.008;10.882;2023-04-01T07:34:32;7.90;99.90
32476;DHT22;18929;48.008;10.882;2023-04-01T07:37:04;8.00;99.90
32476;DHT22;18929;48.008;10.882;2023-04-01T07:39:36;7.80;99.90
32476;DHT22;18929;48.008;10.882;2023-04-01T07:42:05;8.00;99.90
32476;DHT22;18929;48.008;10.882;2023-04-01T07:44:35;7.80;99.90
32476;DHT22;18929;48.008;10.882;2023-04-01T07:49:51;8.10;99.90
32476;DHT22;18929;48.008;10.882;2023-04-01T07:52:24;8.20;99.90
32476;DHT22;18929;48.008;10.882;2023-04-01T07:54:57;8.10;99.90
32476;DHT22;18929;48.008;10.882;2023-04-01T07:57:27;8.00;99.90
32476;DHT22;18929;48.008;10.882;2023-04-01T07:59:58;7.90;99.90
32476;DHT22;18929;48.008;10.882;2023-04-01T08:02:29;7.80;99.90
32476;DHT22;18929;48.008;10.882;2023-04-01T08:05:01;7.80;99.90
32476;DHT22;18929;48.008;10.882;2023-04-01T08:07:30;8.10;99.90
32476;DHT22;18929;48.008;10.882;2023-04-01T08:10:02;8.10;99.90
32476;DHT22;18929;48.008;10.882;2023-04-01T08:12:33;8.00;99.90
32476;DHT22;18929;48.008;10.882;2023-04-01T08:15:07;7.90;99.90
32476;DHT22;18929;48.008;10.882;2023-04-01T08:17:38;8.00;99.90
32476;DHT22;18929;48.008;10.882;2023-04-01T08:20:14;8.40;99.90
32476;DHT22;18929;48.008;10.882;2023-04-01T08:22:45;8.60;99.90
32476;DHT22;18929;48.008;10.882;2023-04-01T08:25:16;8.20;99.90
32476;DHT22;18929;48.008;10.882;2023-04-01T08:27:44;8.40;99.90
32476;DHT22;18929;48.008;10.882;2023-04-01T08:32:42;8.40;99.90
32476;DHT22;18929;48.008;10.882;2023-04-01T08:35:14;8.60;99.90
32476;DHT22;18929;48.008;10.882;2023-04-01T08:37:44;8.80;99.90
32476;DHT22;18929;48.008;10.882;2023-04-01T08:40:25;8.50;99.90
32476;DHT22;18929;48.008;10.882;2023-04-01T08:42:59;8.80;99.90
32476;DHT22;18929;48.008;10.882;2023-04-01T08:45:32;8.80;99.90
32476;DHT22;18929;48.008;10.882;2023-04-01T08:48:12;9.20;99.90
32476;DHT22;18929;48.008;10.882;2023-04-01T08:50:46;8.50;99.90
32476;DHT22;18929;48.008;10.882;2023-04-01T08:53:19;8.60;99.90
32476;DHT22;18929;48.008;10.882;2023-04-01T08:55:51;8.70;99.90
32476;DHT22;18929;48.008;10.882;2023-04-01T08:58:30;8.70;99.90
32476;DHT22;18929;48.008;10.882;2023-04-01T09:01:02;8.50;99.90
32476;DHT22;18929;48.008;10.882;2023-04-01T09:03:37;8.50;99.90
32476;DHT22;18929;48.008;10.882;2023-04-01T09:06:23;8.90;99.90
32476;DHT22;18929;48.008;10.882;2023-04-01T09:08:56;9.00;99.90
32476;DHT22;18929;48.008;10.882;2023-04-01T09:11:28;9.20;99.90
32476;DHT22;18929;48.008;10.882;2023-04-01T09:16:45;9.30;99.90
32476;DHT22;18929;48.008;10.882;2023-04-01T09:19:20;9.10;99.90
32476;DHT22;18929;48.008;10.882;2023-04-01T09:22:06;9.20;99.90
32476;DHT22;18929;48.008;10.882;2023-04-01T09:27:23;9.40;99.90
32476;DHT22;18929;48.008;10.882;2023-04-01T09:35:36;8.90;99.90
32476;DHT22;18929;48.008;10.882;2023-04-01T09:38:11;9.10;99.90
32476;DHT22;18929;48.008;10.882;2023-04-01T09:40:43;8.80;99.90
32476;DHT22;18929;48.008;10.882;2023-04-01T09:46:16;9.20;99.90
32476;DHT22;18929;48.008;10.882;2023-04-01T09:51:35;9.20;99.90
32476;DHT22;18929;48.008;10.882;2023-04-01T09:54:10;9.30;99.90
32476;DHT22;18929;48.008;10.882;2023-04-01T09:56:59;9.20;99.90
32476;DHT22;18929;48.008;10.882;2023-04-01T10:02:21;9.50;99.90
32476;DHT22;18929;48.008;10.882;2023-04-01T10:19:01;9.40;99.90
32476;DHT22;18929;48.008;10.882;2023-04-01T10:27:20;8.90;99.90
32476;DHT22;18929;48.008;10.882;2023-04-01T10:32:45;9.20;99.90
32476;DHT22;18929;48.008;10.882;2023-04-01T10:35:34;9.00;99.90
32476;DHT22;18929;48.008;10.882;2023-04-01T10:38:16;9.00;99.90
32476;DHT22;18929;48.008;10.882;2023-04-01T10:40:51;9.00;99.90
32476;DHT22;18929;48.008;10.882;2023-04-01T10:43:27;9.10;99.90
32476;DHT22;18929;48.008;10.882;2023-04-01T10:46:13;9.10;99.90
32476;DHT22;18929;48.008;10.882;2023-04-01T10:51:40;9.50;99.90
32476;DHT22;18929;48.008;10.882;2023-04-01T10:54:17;9.20;99.90
32476;DHT22;18929;48.008;10.882;2023-04-01T10:56:49;9.10;99.90
32476;DHT22;18929;48.008;10.882;2023-04-01T10:59:43;9.40;99.90
32476;DHT22;18929;48.008;10.882;2023-04-01T11:02:34;9.10;99.90
32476;DHT22;18929;48.008;10.882;2023-04-01T11:13:55;9.00;99.90
32476;DHT22;18929;48.008;10.882;2023-04-01T11:16:36;9.00;99.90
32476;DHT22;18929;48.008;10.882;2023-04-01T11:21:59;9.10;99.90
32476;DHT22;18929;48.008;10.882;2023-04-01T11:27:25;9.00;99.90
32476;DHT22;18929;48.008;10.882;2023-04-01T11:32:51;9.00;99.90
32476;DHT22;18929;48.008;10.882;2023-04-01T11:35:25;8.90;99.90
32476;DHT22;18929;48.008;10.882;2023-04-01T11:37:59;8.90;99.90
32476;DHT22;18929;48.008;10.882;2023-04-01T11:40:29;8.80;99.90
32476;DHT22;18929;48.008;10.882;2023-04-01T11:43:01;8.90;99.90
32476;DHT22;18929;48.008;10.882;2023-04-01T11:45:32;9.20;99.90
32476;DHT22;18929;48.008;10.882;2023-04-01T11:48:18;8.90;99.90
32476;DHT22;18929;48.008;10.882;2023-04-01T11:50:59;8.90;99.90
32476;DHT22;18929;48.008;10.882;2023-04-01T11:53:32;9.00;99.90
32476;DHT22;18929;48.008;10.882;2023-04-01T11:58:53;9.10;99.90
32476;DHT22;18929;48.008;10.882;2023-04-01T12:01:28;9.00;99.90
32476;DHT22;18929;48.008;10.882;2023-04-01T12:06:43;9.10;99.90
32476;DHT22;18929;48.008;10.882;2023-04-01T12:09:12;9.20;99.90
32476;DHT22;18929;48.008;10.882;2023-04-01T12:11:43;9.10;99.90
32476;DHT22;18929;48.008;10.882;2023-04-01T12:14:14;9.20;99.90
32476;DHT22;18929;48.008;10.882;2023-04-01T12:16:46;9.20;99.90
32476;DHT22;18929;48.008;10.882;2023-04-01T12:19:19;9.30;99.90
32476;DHT22;18929;48.008;10.882;2023-04-01T12:21:52;9.30;99.90
32476;DHT22;18929;48.008;10.882;2023-04-01T12:24:36;9.10;99.90
32476;DHT22;18929;48.008;10.882;2023-04-01T12:27:10;9.20;99.90
32476;DHT22;18929;48.008;10.882;2023-04-01T12:29:48;9.00;99.90
32476;DHT22;18929;48.008;10.882;2023-04-01T12:32:18;9.10;99.90
32476;DHT22;18929;48.008;10.882;2023-04-01T12:37:35;9.20;99.90
32476;DHT22;18929;48.008;10.882;2023-04-01T12:40:14;9.10;99.90
32476;DHT22;18929;48.008;10.882;2023-04-01T12:42:47;9.20;99.90
32476;DHT22;18929;48.008;10.882;2023-04-01T12:45:23;9.20;99.90
32476;DHT22;18929;48.008;10.882;2023-04-01T12:48:05;9.10;99.90
32476;DHT22;18929;48.008;10.882;2023-04-01T12:50:50;8.90;99.90
32476;DHT22;18929;48.008;10.882;2023-04-01T12:53:31;9.10;99.90
32476;DHT22;18929;48.008;10.882;2023-04-01T12:56:06;9.20;99.90
32476;DHT22;18929;48.008;10.882;2023-04-01T13:01:41;8.90;99.90
32476;DHT22;18929;48.008;10.882;2023-04-01T13:07:08;8.90;99.90
32476;DHT22;18929;48.008;10.882;2023-04-01T13:09:39;9.00;99.90
32476;DHT22;18929;48.008;10.882;2023-04-01T13:17:39;9.10;99.90
32476;DHT22;18929;48.008;10.882;2023-04-01T13:20:11;9.10;99.90
32476;DHT22;18929;48.008;10.882;2023-04-01T13:22:45;9.10;99.90
32476;DHT22;18929;48.008;10.882;2023-04-01T13:25:18;8.80;99.90
32476;DHT22;18929;48.008;10.882;2023-04-01T13:27:55;9.00;99.90
32476;DHT22;18929;48.008;10.882;2023-04-01T13:30:24;9.10;99.90
32476;DHT22;18929;48.008;10.882;2023-04-01T13:32:55;8.90;99.90
32476;DHT22;18929;48.008;10.882;2023-04-01T13:35:34;9.00;99.90
32476;DHT22;18929;48.008;10.882;2023-04-01T13:38:05;9.00;99.90
32476;DHT22;18929;48.008;10.882;2023-04-01T13:40:41;8.80;99.90
32476;DHT22;18929;48.008;10.882;2023-04-01T13:43:12;8.90;99.90
32476;DHT22;18929;48.008;10.882;2023-04-01T13:46:04;9.10;99.90
32476;DHT22;18929;48.008;10.882;2023-04-01T13:48:36;9.00;99.90
32476;DHT22;18929;48.008;10.882;2023-04-01T13:51:18;9.00;99.90
32476;DHT22;18929;48.008;10.882;2023-04-01T13:56:50;9.10;99.90
32476;DHT22;18929;48.008;10.882;2023-04-01T14:05:36;9.20;99.90
32476;DHT22;18929;48.008;10.882;2023-04-01T14:08:07;9.00;99.90
32476;DHT22;18929;48.008;10.882;2023-04-01T14:10:39;9.10;99.90
32476;DHT22;18929;48.008;10.882;2023-04-01T14:13:09;9.20;99.90
32476;DHT22;18929;48.008;10.882;2023-04-01T14:15:46;9.40;99.90
32476;DHT22;18929;48.008;10.882;2023-04-01T14:21:08;9.10;99.90
32476;DHT22;18929;48.008;10.882;2023-04-01T14:26:31;9.00;99.90
32476;DHT22;18929;48.008;10.882;2023-04-01T14:29:05;8.90;99.90
32476;DHT22;18929;48.008;10.882;2023-04-01T14:31:44;9.10;99.90
32476;DHT22;18929;48.008;10.882;2023-04-01T14:34:21;9.00;99.90
32476;DHT22;18929;48.008;10.882;2023-04-01T14:36:51;9.00;99.90
32476;DHT22;18929;48.008;10.882;2023-04-01T14:39:29;9.10;99.90
32476;DHT22;18929;48.008;10.882;2023-04-01T14:42:05;9.00;99.90
32476;DHT22;18929;48.008;10.882;2023-04-01T14:44:52;9.20;99.90
32476;DHT22;18929;48.008;10.882;2023-04-01T14:47:28;9.30;99.90
32476;DHT22;18929;48.008;10.882;2023-04-01T14:50:05;9.10;99.90
32476;DHT22;18929;48.008;10.882;2023-04-01T14:52:36;9.20;99.90
32476;DHT22;18929;48.008;10.882;2023-04-01T14:55:10;8.90;99.90
32476;DHT22;18929;48.008;10.882;2023-04-01T14:57:42;9.20;99.90
32476;DHT22;18929;48.008;10.882;2023-04-01T15:00:13;9.30;99.90
32476;DHT22;18929;48.008;10.882;2023-04-01T15:02:43;9.50;99.90
32476;DHT22;18929;48.008;10.882;2023-04-01T15:05:16;9.30;99.90
32476;DHT22;18929;48.008;10.882;2023-04-01T15:10:53;9.40;99.90
32476;DHT22;18929;48.008;10.882;2023-04-01T15:13:26;9.10;99.90
32476;DHT22;18929;48.008;10.882;2023-04-01T15:16:05;9.30;99.90
32476;DHT22;18929;48.008;10.882;2023-04-01T15:18:38;9.20;99.90
32476;DHT22;18929;48.008;10.882;2023-04-01T15:21:11;9.20;99.90
32476;DHT22;18929;48.008;10.882;2023-04-01T15:23:45;9.10;99.90
32476;DHT22;18929;48.008;10.882;2023-04-01T15:26:14;9.30;99.90
32476;DHT22;18929;48.008;10.882;2023-04-01T15:28:46;9.30;99.90
32476;DHT22;18929;48.008;10.882;2023-04-01T15:31:15;9.40;99.90
32476;DHT22;18929;48.008;10.882;2023-04-01T15:33:48;9.20;99.90
32476;DHT22;18929;48.008;10.882;2023-04-01T15:36:19;9.20;99.90
32476;DHT22;18929;48.008;10.882;2023-04-01T15:38:50;9.40;99.90
32476;DHT22;18929;48.008;10.882;2023-04-01T15:41:20;9.50;99.90
32476;DHT22;18929;48.008;10.882;2023-04-01T15:43:50;9.50;99.90
32476;DHT22;18929;48.008;10.882;2023-04-01T15:46:26;9.40;99.90
32476;DHT22;18929;48.008;10.882;2023-04-01T15:49:04;9.30;99.90
32476;DHT22;18929;48.008;10.882;2023-04-01T15:51:38;9.30;99.90
32476;DHT22;18929;48.008;10.882;2023-04-01T15:54:23;9.50;99.90
32476;DHT22;18929;48.008;10.882;2023-04-01T15:56:53;9.50;99.90
32476;DHT22;18929;48.008;10.882;2023-04-01T15:59:25;9.50;99.90
32476;DHT22;18929;48.008;10.882;2023-04-01T16:01:58;9.40;99.90
32476;DHT22;18929;48.008;10.882;2023-04-01T16:04:30;9.50;99.90
32476;DHT22;18929;48.008;10.882;2023-04-01T16:07:02;9.60;99.90
32476;DHT22;18929;48.008;10.882;2023-04-01T16:12:33;9.40;99.90
32476;DHT22;18929;48.008;10.882;2023-04-01T16:15:06;9.40;99.90
32476;DHT22;18929;48.008;10.882;2023-04-01T16:17:44;9.40;99.90
32476;DHT22;18929;48.008;10.882;2023-04-01T16:20:15;9.40;99.90
32476;DHT22;18929;48.008;10.882;2023-04-01T16:22:45;9.40;99.90
32476;DHT22;18929;48.008;10.882;2023-04-01T16:25:18;9.20;99.90
32476;DHT22;18929;48.008;10.882;2023-04-01T16:27:47;9.10;99.90
32476;DHT22;18929;48.008;10.882;2023-04-01T16:30:23;9.00;99.90
32476;DHT22;18929;48.008;10.882;2023-04-01T16:32:57;9.20;99.90
32476;DHT22;18929;48.008;10.882;2023-04-01T16:35:35;9.20;99.90
32476;DHT22;18929;48.008;10.882;2023-04-01T16:38:05;9.40;99.90
32476;DHT22;18929;48.008;10.882;2023-04-01T16:40:52;9.40;99.90
32476;DHT22;18929;48.008;10.882;2023-04-01T16:43:21;9.50;99.90
32476;DHT22;18929;48.008;10.882;2023-04-01T16:45:57;9.60;99.90
32476;DHT22;18929;48.008;10.882;2023-04-01T16:48:36;9.30;99.90
32476;DHT22;18929;48.008;10.882;2023-04-01T16:51:12;9.20;99.90
32476;DHT22;18929;48.008;10.882;2023-04-01T16:53:41;9.10;99.90
32476;DHT22;18929;48.008;10.882;2023-04-01T16:56:11;9.20;99.90
32476;DHT22;18929;48.008;10.882;2023-04-01T16:58:40;9.20;99.90
32476;DHT22;18929;48.008;10.882;2023-04-01T17:01:09;9.20;99.90
32476;DHT22;18929;48.008;10.882;2023-04-01T17:03:40;9.30;99.90
32476;DHT22;18929;48.008;10.882;2023-04-01T17:06:19;9.30;99.90
32476;DHT22;18929;48.008;10.882;2023-04-01T17:08:53;9.30;99.90
32476;DHT22;18929;48.008;10.882;2023-04-01T17:11:23;9.20;99.90
32476;DHT22;18929;48.008;10.882;2023-04-01T17:13:52;9.10;99.90
32476;DHT22;18929;48.008;10.882;2023-04-01T17:19:09;9.20;99.90
32476;DHT22;18929;48.008;10.882;2023-04-01T17:21:47;9.30;99.90
32476;DHT22;18929;48.008;10.882;2023-04-01T17:24:22;9.30;99.90
32476;DHT22;18929;48.008;10.882;2023-04-01T17:26:55;9.30;99.90
32476;DHT22;18929;48.008;10.882;2023-04-01T17:29:24;9.30;99.90
32476;DHT22;18929;48.008;10.882;2023-04-01T17:31:54;9.20;99.90
32476;DHT22;18929;48.008;10.882;2023-04-01T17:34:26;9.20;99.90
32476;DHT22;18929;48.008;10.882;2023-04-01T17:37:00;9.30;99.90
32476;DHT22;18929;48.008;10.882;2023-04-01T17:39:35;9.40;99.90
32476;DHT22;18929;48.008;10.882;2023-04-01T17:42:06;9.30;99.90
32476;DHT22;18929;48.008;10.882;2023-04-01T17:44:38;9.30;99.90
32476;DHT22;18929;48.008;10.882;2023-04-01T17:47:18;9.20;99.90
32476;DHT22;18929;48.008;10.882;2023-04-01T17:50:17;9.20;99.90
32476;DHT22;18929;48.008;10.882;2023-04-01T17:52:48;9.20;99.90
32476;DHT22;18929;48.008;10.882;2023-04-01T17:55:25;9.20;99.90
32476;DHT22;18929;48.008;10.882;2023-04-01T17:57:55;9.20;99.90
32476;DHT22;18929;48.008;10.882;2023-04-01T18:00:28;9.10;99.90
32476;DHT22;18929;48.008;10.882;2023-04-01T18:03:01;9.20;99.90
32476;DHT22;18929;48.008;10.882;2023-04-01T18:05:35;9.30;99.90